createdAt,value
2023-01-30T00:02:43.541Z,0.36
2023-01-30T00:08:05.263Z,0.40
2023-01-30T00:13:27.450Z,0.34
2023-01-30T00:18:49.226Z,0.34
2023-01-30T00:24:11.087Z,0.29
2023-01-30T00:29:32.874Z,0.28
2023-01-30T00:34:54.586Z,0.27
2023-01-30T00:40:16.992Z,0.26
2023-01-30T00:45:59.943Z,0.14
2023-01-30T00:51:21.792Z,0.16
2023-01-30T00:56:43.492Z,0.29
2023-01-30T01:02:05.300Z,0.37
2023-01-30T01:07:27.256Z,0.45
2023-01-30T01:12:50.395Z,0.45
2023-01-30T01:18:12.110Z,0.54
2023-01-30T01:23:33.921Z,0.48
2023-01-30T01:28:56.754Z,0.47
2023-01-30T01:34:18.501Z,0.50
2023-01-30T01:39:58.918Z,0.50
2023-01-30T01:45:22.993Z,0.45
2023-01-30T01:50:58.300Z,0.44
2023-01-30T01:56:20.851Z,0.31
2023-01-30T02:01:42.608Z,0.25
2023-01-30T02:07:04.704Z,0.18
2023-01-30T02:12:26.671Z,0.25
2023-01-30T02:17:48.477Z,0.20
2023-01-30T02:23:43.328Z,0.03
2023-01-30T02:29:26.951Z,0.04
2023-01-30T02:35:14.677Z,-0.10
2023-01-30T02:40:48.739Z,0.05
2023-01-30T02:46:34.269Z,0.14
2023-01-30T02:51:59.031Z,0.05
2023-01-30T02:57:23.367Z,0.24
2023-01-30T03:03:09.266Z,0.11
2023-01-30T03:08:58.148Z,0.13
2023-01-30T03:14:26.561Z,0.14
2023-01-30T03:19:48.435Z,0.10
2023-01-30T03:25:14.096Z,0.17
2023-01-30T03:30:35.844Z,0.16
2023-01-30T03:35:57.717Z,0.40
2023-01-30T03:41:19.425Z,0.81
2023-01-30T03:46:41.148Z,0.95
2023-01-30T03:52:02.857Z,1.06
2023-01-30T03:57:24.548Z,1.16
2023-01-30T04:02:46.330Z,1.19
2023-01-30T04:08:08.072Z,1.32
2023-01-30T04:13:29.747Z,1.53
2023-01-30T04:18:52.173Z,1.40
2023-01-30T04:24:13.897Z,1.51
2023-01-30T04:29:36.169Z,1.48
2023-01-30T04:34:57.927Z,1.50
2023-01-30T04:40:19.834Z,1.61
2023-01-30T04:45:45.372Z,1.62
2023-01-30T04:51:07.425Z,1.71
2023-01-30T04:56:29.170Z,1.82
2023-01-30T05:01:51.020Z,1.85
2023-01-30T05:07:12.807Z,1.88
2023-01-30T05:12:35.015Z,1.78
2023-01-30T05:17:56.803Z,1.94
2023-01-30T05:23:18.520Z,1.96
2023-01-30T05:28:40.684Z,1.93
2023-01-30T05:34:02.419Z,2.01
2023-01-30T05:39:24.108Z,1.94
2023-01-30T05:44:46.063Z,1.90
2023-01-30T05:50:08.418Z,1.89
2023-01-30T05:55:30.523Z,1.89
2023-01-30T06:00:52.525Z,1.87
2023-01-30T06:06:14.257Z,1.99
2023-01-30T06:11:36.045Z,1.95
2023-01-30T06:16:57.885Z,2.14
2023-01-30T06:22:19.663Z,2.16
2023-01-30T06:27:41.436Z,2.22
2023-01-30T06:33:04.326Z,2.20
2023-01-30T06:38:26.357Z,2.18
2023-01-30T06:43:48.303Z,2.20
2023-01-30T06:49:10.082Z,2.19
2023-01-30T06:54:31.943Z,2.15
2023-01-30T06:59:53.689Z,2.30
2023-01-30T07:05:15.443Z,2.28
2023-01-30T07:10:37.372Z,2.20
2023-01-30T07:15:59.086Z,2.30
2023-01-30T07:21:20.791Z,2.34
2023-01-30T07:26:42.756Z,2.37
2023-01-30T07:32:06.288Z,2.42
2023-01-30T07:37:28.001Z,2.47
2023-01-30T07:42:57.130Z,2.40
2023-01-30T07:48:19.664Z,2.55
2023-01-30T07:53:41.382Z,2.62
2023-01-30T07:59:05.549Z,2.80
2023-01-30T08:04:27.338Z,2.79
2023-01-30T08:09:49.126Z,2.79
2023-01-30T08:15:11.204Z,2.88
2023-01-30T08:20:33.449Z,2.82
2023-01-30T08:26:06.151Z,2.75
2023-01-30T08:31:27.924Z,2.62
2023-01-30T08:36:49.680Z,2.61
2023-01-30T08:42:11.474Z,2.73
2023-01-30T08:47:35.420Z,2.57
2023-01-30T08:52:57.147Z,2.91
2023-01-30T08:58:21.933Z,2.83
2023-01-30T09:03:43.643Z,2.99
2023-01-30T09:09:05.361Z,3.12
2023-01-30T09:14:27.258Z,3.26
2023-01-30T09:19:49.183Z,3.32
2023-01-30T09:25:10.874Z,3.40
2023-01-30T09:30:32.678Z,3.48
2023-01-30T09:35:54.475Z,3.31
2023-01-30T09:41:31.342Z,3.28
2023-01-30T09:47:14.502Z,3.41
2023-01-30T09:53:10.243Z,3.55
2023-01-30T09:58:44.468Z,3.68
2023-01-30T10:04:14.566Z,3.85
2023-01-30T10:09:54.795Z,3.94
2023-01-30T10:15:22.483Z,4.10
2023-01-30T10:21:07.035Z,4.20
2023-01-30T10:26:30.521Z,4.31
2023-01-30T10:32:15.754Z,4.40
2023-01-30T10:38:02.832Z,4.28
2023-01-30T10:43:41.111Z,4.44
2023-01-30T10:49:11.658Z,4.41
2023-01-30T10:54:33.296Z,4.50
2023-01-30T11:00:05.621Z,4.52
2023-01-30T11:05:39.481Z,4.58
2023-01-30T11:11:19.972Z,4.59
2023-01-30T11:16:47.627Z,4.59
2023-01-30T11:22:15.095Z,4.66
2023-01-30T11:27:37.072Z,4.68
2023-01-30T11:33:32.978Z,4.74
2023-01-30T11:39:19.805Z,4.68
2023-01-30T11:44:42.450Z,4.63
2023-01-30T11:50:14.595Z,4.44
2023-01-30T11:56:00.330Z,4.42
2023-01-30T12:01:36.511Z,4.36
2023-01-30T12:07:16.475Z,4.30
2023-01-30T12:12:49.067Z,4.27
2023-01-30T12:18:20.326Z,4.29
2023-01-30T12:23:52.579Z,4.16
2023-01-30T12:29:25.338Z,4.05
2023-01-30T12:34:48.326Z,4.12
2023-01-30T12:40:47.172Z,4.09
2023-01-30T12:46:21.025Z,4.11
2023-01-30T12:51:58.861Z,4.13
2023-01-30T12:57:41.364Z,4.20
2023-01-30T13:03:08.727Z,4.20
2023-01-30T13:08:56.349Z,4.23
2023-01-30T13:14:36.356Z,4.10
2023-01-30T13:20:08.451Z,4.26
2023-01-30T13:25:42.665Z,4.32
2023-01-30T13:31:08.817Z,4.30
2023-01-30T13:36:42.002Z,4.33
2023-01-30T13:42:08.538Z,4.22
2023-01-30T13:47:45.453Z,4.41
2023-01-30T13:53:30.378Z,4.26
2023-01-30T13:59:01.026Z,4.28
2023-01-30T14:04:41.140Z,4.41
2023-01-30T14:10:05.441Z,4.64
2023-01-30T14:15:29.072Z,4.79
2023-01-30T14:20:52.239Z,4.89
2023-01-30T14:26:14.012Z,4.95
2023-01-30T14:31:48.901Z,5.04
2023-01-30T14:37:37.795Z,5.10
2023-01-30T14:43:11.785Z,5.08
2023-01-30T14:48:53.855Z,4.97
2023-01-30T14:54:15.590Z,5.04
2023-01-30T15:00:13.415Z,4.96
2023-01-30T15:05:43.778Z,4.93
2023-01-30T15:11:25.726Z,4.85
2023-01-30T15:17:12.170Z,4.99
2023-01-30T15:23:07.771Z,4.93
2023-01-30T15:29:08.818Z,4.99
2023-01-30T15:34:32.266Z,4.90
2023-01-30T15:40:15.705Z,4.95
2023-01-30T15:46:13.463Z,5.02
2023-01-30T15:51:35.244Z,4.94
2023-01-30T15:56:59.295Z,4.98
2023-01-30T16:02:30.396Z,5.01
2023-01-30T16:07:54.240Z,4.92
2023-01-30T16:13:16.668Z,5.03
2023-01-30T16:18:45.765Z,4.95
2023-01-30T16:24:20.335Z,5.04
2023-01-30T16:29:53.052Z,4.88
2023-01-30T16:35:30.920Z,4.95
2023-01-30T16:40:52.643Z,4.95
2023-01-30T16:46:42.504Z,4.88
2023-01-30T16:52:26.191Z,4.84
2023-01-30T16:57:57.264Z,4.87
2023-01-30T17:03:24.284Z,4.88
2023-01-30T17:08:58.701Z,4.90
2023-01-30T17:14:21.839Z,4.71
2023-01-30T17:19:46.760Z,4.76
2023-01-30T17:25:20.056Z,4.78
2023-01-30T17:30:41.947Z,4.76
2023-01-30T17:36:06.777Z,4.70
2023-01-30T17:41:30.841Z,4.70
2023-01-30T17:46:52.610Z,4.80
2023-01-30T17:52:14.611Z,4.71
2023-01-30T17:57:36.349Z,4.72
2023-01-30T18:02:58.111Z,4.64
2023-01-30T18:08:19.885Z,4.70
2023-01-30T18:13:42.651Z,4.66
2023-01-30T18:19:06.682Z,4.66
2023-01-30T18:24:28.502Z,4.54
2023-01-30T18:29:50.289Z,4.35
2023-01-30T18:35:12.002Z,4.47
2023-01-30T18:40:33.796Z,4.55
2023-01-30T18:46:02.589Z,4.59
2023-01-30T18:51:26.822Z,4.64
2023-01-30T18:56:48.544Z,4.72
2023-01-30T19:02:12.964Z,4.73
2023-01-30T19:07:35.127Z,4.78
2023-01-30T19:13:15.620Z,4.71
2023-01-30T19:18:37.441Z,4.93
2023-01-30T19:24:02.361Z,4.80
2023-01-30T19:29:24.217Z,4.79
2023-01-30T19:34:45.997Z,4.73
2023-01-30T19:40:09.712Z,4.78
2023-01-30T19:45:35.199Z,4.73
2023-01-30T19:50:58.101Z,4.73
2023-01-30T19:56:22.661Z,4.72
2023-01-30T20:01:44.737Z,4.66
2023-01-30T20:07:06.727Z,4.67
2023-01-30T20:12:28.703Z,4.68
2023-01-30T20:17:52.991Z,4.63
2023-01-30T20:23:14.966Z,4.51
2023-01-30T20:28:38.213Z,4.53
2023-01-30T20:34:09.065Z,4.57
2023-01-30T20:39:30.861Z,4.62
2023-01-30T20:44:52.703Z,4.64
2023-01-30T20:50:15.866Z,4.66
2023-01-30T20:55:38.281Z,4.72
2023-01-30T21:01:18.576Z,4.69
2023-01-30T21:06:44.289Z,4.77
2023-01-30T21:12:07.263Z,4.79
2023-01-30T21:17:29.011Z,4.78
2023-01-30T21:22:50.809Z,4.78
2023-01-30T21:28:12.560Z,4.77
2023-01-30T21:33:34.452Z,4.83
2023-01-30T21:39:14.799Z,4.82
2023-01-30T21:44:37.861Z,4.81
2023-01-30T21:49:59.719Z,4.91
2023-01-30T21:55:21.864Z,4.98
2023-01-30T22:00:43.810Z,4.96
2023-01-30T22:06:10.058Z,5.05
2023-01-30T22:11:32.804Z,4.98
2023-01-30T22:16:54.730Z,4.93
2023-01-30T22:22:16.551Z,5.14
2023-01-30T22:27:38.509Z,5.09
2023-01-30T22:33:00.223Z,5.03
2023-01-30T22:38:23.103Z,4.99
2023-01-30T22:43:47.420Z,4.99
2023-01-30T22:49:10.165Z,4.91
2023-01-30T22:54:31.985Z,5.00
2023-01-30T22:59:53.771Z,4.97
2023-01-30T23:05:15.534Z,5.12
2023-01-30T23:10:40.328Z,5.05
2023-01-30T23:16:04.085Z,5.10
2023-01-30T23:21:31.767Z,5.12
2023-01-30T23:26:53.486Z,5.15
2023-01-30T23:32:18.913Z,5.22
2023-01-30T23:37:59.196Z,5.11
2023-01-30T23:43:21.053Z,5.05
2023-01-30T23:48:44.514Z,5.07
2023-01-30T23:54:07.144Z,5.05
2023-01-30T23:59:28.851Z,4.91
